createdAt,value
2019-06-10T00:01:11.936Z,9.07
2019-06-10T00:03:42.343Z,6.87
2019-06-10T00:06:12.099Z,8.57
2019-06-10T00:08:41.655Z,13.13
2019-06-10T00:11:11.685Z,6.13
2019-06-10T00:13:41.568Z,7.47
2019-06-10T00:16:11.561Z,9.00
2019-06-10T00:18:43.021Z,10.40
2019-06-10T00:21:12.316Z,6.57
2019-06-10T00:23:41.874Z,10.63
2019-06-10T00:26:12.651Z,7.70
2019-06-10T00:28:42.567Z,7.50
2019-06-10T00:31:12.174Z,10.57
2019-06-10T00:33:41.708Z,7.90
2019-06-10T00:36:13.519Z,7.63
2019-06-10T00:38:42.466Z,6.20
2019-06-10T00:41:14.081Z,7.83
2019-06-10T00:43:43.227Z,9.50
2019-06-10T00:46:13.355Z,7.20
2019-06-10T00:48:42.944Z,13.13
2019-06-10T00:51:13.221Z,5.53
2019-06-10T00:53:42.919Z,10.30
2019-06-10T00:56:14.320Z,6.60
2019-06-10T00:58:44.012Z,8.50
2019-06-10T01:01:14.686Z,8.23
2019-06-10T01:03:44.382Z,8.37
2019-06-10T01:06:15.086Z,8.67
2019-06-10T01:08:44.799Z,7.00
2019-06-10T01:11:21.534Z,7.80
2019-06-10T01:13:45.543Z,9.80
2019-06-10T01:16:15.601Z,8.93
2019-06-10T01:18:45.356Z,7.87
2019-06-10T01:21:15.505Z,8.63
2019-06-10T01:23:45.492Z,11.73
2019-06-10T01:26:16.414Z,12.50
2019-06-10T01:28:46.550Z,9.00
2019-06-10T01:31:20.714Z,7.70
2019-06-10T01:33:47.291Z,9.73
2019-06-10T01:36:18.113Z,7.90
2019-06-10T01:38:48.285Z,8.37
2019-06-10T01:41:17.769Z,12.10
2019-06-10T01:43:47.364Z,8.03
2019-06-10T01:46:17.547Z,8.60
2019-06-10T01:48:48.500Z,9.93
2019-06-10T01:51:21.567Z,9.33
2019-06-10T01:53:51.559Z,9.63
2019-06-10T01:56:21.528Z,7.60
2019-06-10T01:58:51.657Z,11.80
2019-06-10T02:01:27.552Z,10.27
2019-06-10T02:22:03.420Z,15.37
2019-06-10T02:24:32.992Z,9.60
2019-06-10T02:27:02.521Z,8.70
2019-06-10T02:29:32.676Z,7.83
2019-06-10T02:32:04.789Z,8.10
2019-06-10T02:34:39.222Z,9.40
2019-06-10T02:37:05.150Z,12.47
2019-06-10T02:39:38.820Z,10.07
2019-06-10T02:42:13.689Z,9.33
2019-06-10T02:44:44.533Z,10.10
2019-06-10T02:47:18.240Z,12.00
2019-06-10T02:49:57.007Z,9.83
2019-06-10T02:52:22.877Z,14.37
2019-06-10T02:54:53.531Z,9.23
2019-06-10T02:57:29.569Z,10.83
2019-06-10T02:59:54.402Z,12.43
2019-06-10T03:02:30.061Z,11.13
2019-06-10T03:04:55.709Z,12.60
2019-06-10T03:07:28.741Z,11.73
2019-06-10T03:09:56.547Z,10.10
2019-06-10T03:12:26.185Z,11.13
2019-06-10T03:14:55.666Z,11.83
2019-06-10T03:17:26.539Z,10.23
2019-06-10T03:19:56.504Z,11.03
2019-06-10T03:22:26.181Z,9.80
2019-06-10T03:24:55.759Z,25.93
2019-06-10T03:27:26.608Z,11.27
2019-06-10T03:29:57.255Z,13.77
2019-06-10T03:32:34.273Z,14.67
2019-06-10T03:34:58.048Z,12.13
2019-06-10T03:37:27.931Z,13.10
2019-06-10T03:39:57.384Z,12.33
2019-06-10T03:42:28.163Z,15.03
2019-06-10T03:44:57.727Z,13.70
2019-06-10T03:47:28.767Z,15.43
2019-06-10T03:49:58.495Z,17.70
2019-06-10T03:52:28.528Z,15.83
2019-06-10T03:54:58.080Z,13.30
2019-06-10T03:57:28.694Z,15.00
2019-06-10T03:59:58.656Z,16.30
2019-06-10T04:02:32.551Z,15.90
2019-06-10T04:05:02.985Z,14.77
2019-06-10T04:07:34.234Z,16.07
2019-06-10T04:10:04.019Z,17.97
2019-06-10T04:12:33.578Z,12.40
2019-06-10T04:15:04.453Z,13.87
2019-06-10T04:17:34.046Z,15.00
2019-06-10T04:20:11.626Z,13.30
2019-06-10T04:22:36.987Z,15.60
2019-06-10T04:25:06.651Z,16.63
2019-06-10T04:27:36.279Z,14.63
2019-06-10T04:30:06.537Z,16.00
2019-06-10T04:32:36.258Z,13.47
2019-06-10T04:35:07.503Z,13.37
2019-06-10T04:37:42.621Z,14.10
2019-06-10T04:40:13.394Z,14.10
2019-06-10T04:42:44.306Z,14.10
2019-06-10T04:45:13.887Z,13.67
2019-06-10T04:47:43.514Z,11.27
2019-06-10T04:50:25.019Z,12.90
2019-06-10T04:52:44.615Z,12.93
2019-06-10T04:55:14.301Z,14.47
2019-06-10T04:57:44.106Z,11.47
2019-06-10T05:00:14.837Z,13.03
2019-06-10T05:02:44.401Z,14.80
2019-06-10T05:05:14.127Z,10.37
2019-06-10T05:07:43.611Z,16.37
2019-06-10T05:10:13.271Z,12.87
2019-06-10T05:12:43.272Z,15.70
2019-06-10T05:15:13.478Z,14.70
2019-06-10T05:17:43.738Z,13.57
2019-06-10T05:20:13.759Z,15.63
2019-06-10T05:22:43.626Z,12.30
2019-06-10T05:25:13.260Z,11.93
2019-06-10T05:27:43.348Z,9.80
2019-06-10T05:30:12.994Z,13.63
2019-06-10T05:32:43.229Z,11.93
2019-06-10T05:35:12.963Z,10.50
2019-06-10T05:37:42.623Z,12.87
2019-06-10T05:40:12.830Z,9.27
2019-06-10T05:42:42.708Z,10.43
2019-06-10T05:45:12.436Z,8.83
2019-06-10T05:47:42.702Z,8.70
2019-06-10T05:50:13.007Z,11.87
2019-06-10T05:52:42.838Z,12.70
2019-06-10T05:55:12.330Z,18.20
2019-06-10T05:57:42.870Z,17.70
2019-06-10T06:00:14.932Z,18.50
2019-06-10T06:02:44.460Z,16.00
2019-06-10T06:05:14.377Z,18.60
2019-06-10T06:07:43.844Z,14.43
2019-06-10T06:10:13.636Z,13.57
2019-06-10T06:12:43.396Z,19.93
2019-06-10T06:15:13.698Z,22.00
2019-06-10T06:17:43.383Z,18.53
2019-06-10T06:20:13.990Z,16.53
2019-06-10T06:22:43.520Z,17.07
2019-06-10T06:25:15.280Z,14.80
2019-06-10T06:27:44.393Z,15.80
2019-06-10T06:30:18.473Z,21.20
2019-06-10T06:32:46.323Z,16.17
2019-06-10T06:35:15.945Z,19.47
2019-06-10T06:37:45.576Z,15.23
2019-06-10T06:40:15.845Z,18.03
2019-06-10T06:42:45.417Z,18.17
2019-06-10T06:45:15.204Z,12.80
2019-06-10T06:47:44.724Z,16.30
2019-06-10T06:50:14.347Z,15.77
2019-06-10T06:53:15.388Z,14.77
2019-06-10T06:55:15.215Z,17.60
2019-06-10T06:57:44.767Z,15.63
2019-06-10T07:00:40.819Z,18.07
2019-06-10T07:02:46.285Z,16.23
2019-06-10T07:05:15.803Z,19.47
2019-06-10T07:07:45.419Z,15.10
2019-06-10T07:10:14.986Z,14.40
2019-06-10T07:12:45.678Z,15.27
2019-06-10T07:15:16.276Z,16.97
2019-06-10T07:17:46.174Z,17.33
2019-06-10T07:20:15.960Z,16.43
2019-06-10T07:22:46.653Z,18.87
2019-06-10T07:25:16.419Z,13.37
2019-06-10T07:27:47.037Z,14.10
2019-06-10T07:30:17.762Z,13.97
2019-06-10T07:32:47.564Z,11.87
2019-06-10T07:35:17.356Z,14.77
2019-06-10T07:37:47.039Z,18.47
2019-06-10T07:40:18.771Z,14.47
2019-06-10T07:42:48.314Z,14.47
2019-06-10T07:45:18.159Z,12.47
2019-06-10T07:47:47.650Z,14.83
2019-06-10T07:50:17.759Z,16.33
2019-06-10T07:52:47.244Z,13.83
2019-06-10T07:55:18.220Z,13.77
2019-06-10T07:57:47.721Z,13.53
2019-06-10T08:00:19.340Z,15.50
2019-06-10T08:02:48.896Z,14.50
2019-06-10T08:05:18.388Z,11.70
2019-06-10T08:07:49.027Z,15.10
2019-06-10T08:10:18.695Z,15.17
2019-06-10T08:12:48.450Z,11.90
2019-06-10T08:15:17.938Z,10.80
2019-06-10T08:17:49.143Z,12.57
2019-06-10T08:20:39.149Z,14.33
2019-06-10T08:23:08.704Z,11.27
2019-06-10T08:25:38.523Z,11.73
2019-06-10T08:28:08.437Z,12.20
2019-06-10T08:30:38.250Z,10.50
2019-06-10T08:33:07.964Z,9.97
2019-06-10T08:35:44.517Z,10.43
2019-06-10T08:38:08.790Z,12.10
2019-06-10T08:40:38.413Z,9.20
2019-06-10T08:43:08.713Z,11.20
2019-06-10T08:45:38.893Z,8.90
2019-06-10T08:48:08.682Z,7.90
2019-06-10T08:50:39.334Z,10.03
2019-06-10T08:53:14.675Z,7.57
2019-06-10T08:55:42.838Z,9.20
2019-06-10T08:58:12.901Z,10.53
2019-06-10T09:00:45.104Z,13.23
2019-06-10T09:03:14.219Z,10.70
2019-06-10T09:05:46.513Z,12.53
2019-06-10T09:08:14.871Z,10.70
2019-06-10T09:10:47.948Z,25.17
2019-06-10T09:13:15.590Z,10.53
2019-06-10T09:16:00.571Z,9.60
2019-06-10T09:18:19.961Z,7.80
2019-06-10T09:20:52.437Z,10.50
2019-06-10T09:23:22.410Z,10.47
2019-06-10T09:25:54.492Z,9.70
2019-06-10T09:28:23.435Z,7.83
2019-06-10T09:30:58.321Z,9.57
2019-06-10T09:33:23.752Z,9.70
2019-06-10T09:35:55.042Z,7.10
2019-06-10T09:38:25.149Z,9.63
2019-06-10T09:41:01.360Z,6.20
2019-06-10T09:43:26.149Z,9.93
2019-06-10T09:45:56.644Z,7.97
2019-06-10T09:48:27.064Z,6.13
2019-06-10T09:50:58.586Z,8.93
2019-06-10T09:53:41.244Z,5.23
2019-06-10T09:55:59.035Z,4.93
2019-06-10T09:58:28.816Z,5.93
2019-06-10T10:00:59.007Z,8.70
2019-06-10T10:03:28.857Z,6.90
2019-06-10T10:06:09.916Z,7.13
2019-06-10T10:08:29.502Z,7.47
2019-06-10T10:10:59.365Z,7.30
2019-06-10T10:13:29.210Z,4.90
2019-06-10T10:15:58.784Z,5.80
2019-06-10T10:18:28.431Z,3.37
2019-06-10T10:21:00.265Z,6.00
2019-06-10T10:23:42.508Z,8.97
2019-06-10T10:26:03.182Z,6.00
2019-06-10T10:28:33.425Z,7.93
2019-06-10T10:31:04.400Z,4.93
2019-06-10T10:33:34.265Z,7.40
2019-06-10T10:36:03.775Z,7.30
2019-06-10T10:38:34.838Z,4.30
2019-06-10T10:41:04.971Z,3.93
2019-06-10T10:43:37.853Z,5.90
2019-06-10T10:46:06.115Z,6.50
2019-06-10T10:48:36.018Z,4.97
2019-06-10T10:51:05.569Z,6.87
2019-06-10T10:53:35.356Z,11.13
2019-06-10T10:56:05.077Z,8.67
2019-06-10T10:58:34.566Z,7.90
2019-06-10T11:01:04.886Z,7.17
2019-06-10T11:03:34.617Z,11.90
2019-06-10T11:06:05.051Z,5.33
2019-06-10T11:08:34.952Z,8.37
2019-06-10T11:11:05.899Z,8.37
2019-06-10T11:13:38.013Z,5.47
2019-06-10T11:16:07.539Z,6.87
2019-06-10T11:18:37.062Z,5.53
2019-06-10T11:21:06.697Z,6.97
2019-06-10T11:23:36.139Z,5.97
2019-06-10T11:26:05.710Z,14.03
2019-06-10T11:28:35.176Z,10.43
2019-06-10T11:31:04.660Z,9.47
2019-06-10T11:33:34.795Z,7.03
2019-06-10T11:36:04.432Z,10.60
2019-06-10T11:38:34.159Z,7.43
2019-06-10T11:41:03.748Z,7.27
2019-06-10T11:43:33.445Z,10.03
2019-06-10T11:46:07.108Z,6.13
2019-06-10T11:48:34.097Z,8.33
2019-06-10T11:51:04.740Z,8.60
2019-06-10T11:53:34.803Z,13.47
2019-06-10T11:56:04.763Z,8.20
2019-06-10T11:58:34.300Z,9.07
2019-06-10T12:01:04.298Z,8.10
2019-06-10T12:03:33.933Z,9.20
2019-06-10T12:06:05.306Z,18.77
2019-06-10T12:08:34.736Z,11.80
2019-06-10T12:11:05.310Z,10.67
2019-06-10T12:13:34.984Z,11.03
2019-06-10T12:17:05.225Z,10.83
2019-06-10T12:18:36.192Z,7.27
2019-06-10T12:21:05.743Z,9.87
2019-06-10T12:23:35.248Z,14.53
2019-06-10T12:26:05.394Z,12.07
2019-06-10T12:28:35.224Z,12.83
2019-06-10T12:31:07.280Z,11.30
2019-06-10T12:33:35.947Z,10.90
2019-06-10T12:36:07.278Z,20.27
2019-06-10T12:38:37.468Z,13.20
2019-06-10T12:41:10.154Z,10.20
2019-06-10T12:43:38.479Z,15.73
2019-06-10T12:46:07.971Z,13.03
2019-06-10T12:48:37.564Z,10.63
2019-06-10T12:51:09.598Z,10.27
2019-06-10T12:53:38.299Z,11.20
2019-06-10T12:56:11.348Z,10.73
2019-06-10T12:58:39.337Z,12.93
2019-06-10T13:01:08.913Z,9.43
2019-06-10T13:03:38.475Z,16.67
2019-06-10T13:06:09.798Z,11.13
2019-06-10T13:08:42.639Z,13.77
2019-06-10T13:11:13.225Z,13.30
2019-06-10T13:13:42.693Z,11.57
2019-06-10T13:16:14.165Z,11.10
2019-06-10T13:18:43.381Z,18.30
2019-06-10T13:21:17.171Z,14.00
2019-06-10T13:23:44.356Z,10.00
2019-06-10T13:26:16.735Z,11.67
2019-06-10T13:28:45.052Z,13.50
2019-06-10T13:31:14.615Z,11.40
2019-06-10T13:33:44.203Z,10.03
2019-06-10T13:36:13.763Z,10.60
2019-06-10T13:38:43.411Z,8.63
2019-06-10T13:41:12.988Z,10.70
2019-06-10T13:43:43.495Z,12.60
2019-06-10T13:46:13.203Z,16.73
2019-06-10T13:48:43.186Z,12.70
2019-06-10T13:51:15.471Z,11.20
2019-06-10T13:53:46.351Z,12.60
2019-06-10T13:56:38.162Z,11.17
2019-06-10T13:58:46.635Z,10.30
2019-06-10T14:01:21.396Z,8.37
2019-06-10T14:03:47.350Z,8.30
2019-06-10T14:06:37.117Z,9.80
2019-06-10T14:08:48.416Z,7.70
2019-06-10T14:11:19.172Z,11.17
2019-06-10T14:13:49.165Z,10.90
2019-06-10T14:16:19.102Z,10.77
2019-06-10T14:18:48.565Z,8.60
2019-06-10T14:21:18.798Z,11.30
2019-06-10T14:23:48.259Z,11.30
2019-06-10T14:26:25.606Z,15.63
2019-06-10T14:28:49.067Z,12.67
2019-06-10T14:31:38.282Z,12.53
2019-06-10T14:33:50.088Z,9.93
2019-06-10T14:36:22.041Z,7.53
2019-06-10T14:38:50.956Z,12.27
2019-06-10T14:41:25.650Z,11.10
2019-06-10T14:43:53.145Z,7.70
2019-06-10T14:46:23.165Z,8.80
2019-06-10T14:48:53.256Z,10.90
2019-06-10T14:51:23.077Z,11.03
2019-06-10T14:53:52.999Z,11.23
2019-06-10T14:56:23.517Z,10.47
2019-06-10T14:58:53.167Z,9.27
2019-06-10T15:01:25.434Z,10.53
2019-06-10T15:03:53.877Z,10.00
2019-06-10T15:06:23.398Z,14.30
2019-06-10T15:08:53.354Z,11.70
2019-06-10T15:11:25.390Z,13.63
2019-06-10T15:13:54.183Z,12.27
2019-06-10T15:16:23.966Z,10.77
2019-06-10T15:18:53.491Z,10.60
2019-06-10T15:21:23.453Z,9.70
2019-06-10T15:23:53.207Z,12.77
2019-06-10T15:26:22.731Z,8.27
2019-06-10T15:28:52.634Z,9.00
2019-06-10T15:31:23.302Z,13.23
2019-06-10T15:33:52.808Z,12.10
2019-06-10T15:36:22.343Z,9.23
2019-06-10T15:38:52.510Z,11.77
2019-06-10T15:41:24.715Z,12.13
2019-06-10T15:43:53.977Z,8.23
2019-06-10T15:46:23.413Z,15.90
2019-06-10T15:48:54.096Z,24.77
2019-06-10T15:51:26.060Z,36.40
2019-06-10T15:53:56.839Z,17.20
2019-06-10T15:56:37.595Z,20.23
2019-06-10T15:58:57.616Z,11.93
2019-06-10T16:01:28.284Z,7.30
2019-06-10T16:03:57.812Z,10.30
2019-06-10T16:06:28.391Z,7.33
2019-06-10T16:08:59.030Z,6.23
2019-06-10T16:11:30.063Z,6.50
2019-06-10T16:13:59.657Z,7.90
2019-06-10T16:16:29.182Z,11.80
2019-06-10T16:18:58.707Z,8.13
2019-06-10T16:21:28.704Z,11.77
2019-06-10T16:23:58.264Z,33.77
2019-06-10T16:26:28.085Z,24.00
2019-06-10T16:28:58.003Z,21.50
2019-06-10T16:31:27.744Z,30.17
2019-06-10T16:33:57.405Z,19.63
2019-06-10T16:36:28.060Z,15.50
2019-06-10T16:38:57.823Z,18.23
2019-06-10T16:41:28.200Z,16.63
2019-06-10T16:43:57.940Z,22.23
2019-06-10T16:46:29.230Z,24.30
2019-06-10T16:49:03.100Z,26.97
2019-06-10T16:51:31.876Z,25.43
2019-06-10T16:54:02.401Z,19.93
2019-06-10T16:56:33.539Z,25.00
2019-06-10T16:59:03.197Z,19.87
2019-06-10T17:01:33.185Z,28.37
2019-06-10T17:04:02.934Z,26.97
2019-06-10T17:06:32.855Z,42.50
2019-06-10T17:09:02.872Z,27.50
2019-06-10T17:11:32.439Z,26.10
2019-06-10T17:14:03.079Z,22.57
2019-06-10T17:16:32.758Z,25.27
2019-06-10T17:19:02.553Z,22.63
2019-06-10T17:21:34.631Z,26.57
2019-06-10T17:24:04.061Z,24.50
2019-06-10T17:26:37.934Z,23.13
2019-06-10T17:29:04.795Z,23.23
2019-06-10T17:31:35.317Z,23.33
2019-06-10T17:34:04.866Z,18.33
2019-06-10T17:36:35.451Z,20.67
2019-06-10T17:39:08.078Z,23.20
2019-06-10T17:41:37.935Z,28.47
2019-06-10T17:44:07.485Z,19.10
2019-06-10T17:46:37.363Z,18.80
2019-06-10T17:49:06.981Z,18.20
2019-06-10T17:51:36.815Z,22.20
2019-06-10T17:54:06.350Z,21.30
2019-06-10T17:56:36.526Z,21.63
2019-06-10T17:59:06.774Z,17.57
2019-06-10T18:01:36.433Z,14.70
2019-06-10T18:04:05.963Z,18.73
2019-06-10T18:06:36.558Z,16.90
2019-06-10T18:09:07.555Z,24.20
2019-06-10T18:11:37.372Z,37.20
2019-06-10T18:14:07.050Z,19.17
2019-06-10T18:16:36.855Z,20.57
2019-06-10T18:19:06.531Z,14.77
2019-06-10T18:21:36.559Z,18.33
2019-06-10T18:24:08.446Z,16.80
2019-06-10T18:26:38.042Z,22.40
2019-06-10T18:29:09.213Z,21.47
2019-06-10T18:31:39.401Z,18.40
2019-06-10T18:34:09.271Z,17.97
2019-06-10T18:36:38.760Z,16.93
2019-06-10T18:39:08.811Z,14.77
2019-06-10T18:41:39.685Z,15.50
2019-06-10T18:44:19.756Z,21.37
2019-06-10T18:46:43.049Z,14.60
2019-06-10T18:49:13.348Z,22.10
2019-06-10T18:51:43.549Z,15.53
2019-06-10T18:54:13.323Z,26.13
2019-06-10T18:56:43.105Z,21.90
2019-06-10T18:59:19.774Z,20.27
2019-06-10T19:01:43.987Z,17.50
2019-06-10T19:04:13.494Z,17.10
2019-06-10T19:06:43.277Z,22.00
2019-06-10T19:09:13.064Z,22.03
2019-06-10T19:11:43.306Z,19.77
2019-06-10T19:14:13.070Z,20.57
2019-06-10T19:16:43.077Z,19.90
2019-06-10T19:19:12.806Z,18.43
2019-06-10T19:21:44.044Z,22.30
2019-06-10T19:24:14.188Z,15.97
2019-06-10T19:26:45.170Z,17.20
2019-06-10T19:29:29.657Z,22.43
2019-06-10T19:31:46.486Z,18.40
2019-06-10T19:34:16.285Z,20.43
2019-06-10T19:36:45.851Z,20.73
2019-06-10T19:39:15.529Z,16.13
2019-06-10T19:41:47.268Z,18.20
2019-06-10T19:44:16.559Z,15.33
2019-06-10T19:46:46.087Z,17.90
2019-06-10T19:49:15.590Z,23.07
2019-06-10T19:51:46.890Z,15.10
2019-06-10T19:54:16.279Z,19.80
2019-06-10T19:56:45.825Z,16.07
2019-06-10T19:59:15.341Z,15.40
2019-06-10T20:04:22.503Z,23.00
2019-06-10T20:06:53.722Z,15.40
2019-06-10T20:09:22.992Z,17.90
2019-06-10T20:11:52.836Z,18.87
2019-06-10T20:14:22.295Z,21.37
2019-06-10T20:16:52.715Z,17.47
2019-06-10T20:19:22.611Z,23.50
2019-06-10T20:21:53.445Z,16.53
2019-06-10T20:24:22.938Z,17.40
2019-06-10T20:26:52.998Z,22.30
2019-06-10T20:29:22.658Z,19.47
2019-06-10T20:31:52.469Z,18.03
2019-06-10T20:34:24.413Z,22.27
2019-06-10T20:36:53.599Z,18.00
2019-06-10T20:39:24.884Z,22.47
2019-06-10T20:41:55.803Z,20.43
2019-06-10T20:44:28.579Z,15.20
2019-06-10T20:46:58.170Z,18.60
2019-06-10T20:49:27.895Z,18.57
2019-06-10T20:52:09.882Z,18.73
2019-06-10T20:54:28.783Z,19.33
2019-06-10T20:56:58.292Z,17.33
2019-06-10T20:59:27.968Z,24.27
2019-06-10T21:01:57.457Z,17.83
2019-06-10T21:04:27.109Z,18.73
2019-06-10T21:06:57.280Z,16.47
2019-06-10T21:09:28.004Z,20.90
2019-06-10T21:11:57.506Z,21.43
2019-06-10T21:14:27.340Z,19.37
2019-06-10T21:16:56.903Z,18.13
2019-06-10T21:19:26.599Z,18.73
2019-06-10T21:21:56.089Z,19.17
2019-06-10T21:24:25.832Z,23.00
2019-06-10T21:26:55.357Z,24.23
2019-06-10T21:29:25.214Z,24.63
2019-06-10T21:31:55.286Z,17.90
2019-06-10T21:34:24.854Z,21.97
2019-06-10T21:36:54.535Z,25.33
2019-06-10T21:39:24.777Z,19.80
2019-06-10T21:41:54.719Z,18.83
2019-06-10T21:44:24.351Z,21.90
2019-06-10T21:46:53.877Z,26.63
2019-06-10T21:49:23.998Z,24.27
2019-06-10T21:51:56.869Z,22.33
2019-06-10T21:54:26.909Z,23.13
2019-06-10T21:56:55.998Z,21.60
2019-06-10T21:59:25.749Z,25.83
2019-06-10T22:01:55.819Z,22.10
2019-06-10T22:04:25.470Z,23.17
2019-06-10T22:06:56.208Z,22.40
2019-06-10T22:09:25.893Z,21.93
2019-06-10T22:11:55.910Z,26.60
2019-06-10T22:14:28.332Z,20.17
2019-06-10T22:16:57.817Z,25.63
2019-06-10T22:19:27.420Z,24.03
2019-06-10T22:21:57.020Z,20.53
2019-06-10T22:24:28.581Z,21.03
2019-06-10T22:26:58.390Z,25.80
2019-06-10T22:29:27.987Z,24.50
2019-06-10T22:31:57.486Z,21.47
2019-06-10T22:34:27.625Z,21.80
2019-06-10T22:36:57.700Z,21.33
2019-06-10T22:39:27.615Z,21.43
2019-06-10T22:41:57.383Z,19.67
2019-06-10T22:44:26.918Z,20.30
2019-06-10T22:46:57.231Z,16.77
2019-06-10T22:49:27.014Z,18.50
2019-06-10T22:51:58.423Z,21.30
2019-06-10T22:54:27.847Z,20.17
2019-06-10T22:56:58.442Z,19.53
2019-06-10T22:59:28.295Z,19.93
2019-06-10T23:01:58.743Z,21.20
2019-06-10T23:04:29.103Z,21.70
2019-06-10T23:06:59.887Z,20.30
2019-06-10T23:09:29.886Z,21.40
2019-06-10T23:11:59.391Z,19.93
2019-06-10T23:14:29.363Z,21.90
2019-06-10T23:17:00.138Z,25.97
2019-06-10T23:19:33.095Z,20.83
2019-06-10T23:22:03.008Z,20.80
2019-06-10T23:24:32.609Z,21.67
2019-06-10T23:27:03.215Z,19.00
2019-06-10T23:29:33.120Z,23.60
2019-06-10T23:32:07.246Z,26.30
2019-06-10T23:34:37.181Z,19.73
2019-06-10T23:37:06.668Z,23.63
2019-06-10T23:39:36.296Z,34.63
2019-06-10T23:42:06.120Z,20.67
2019-06-10T23:44:35.738Z,23.47
2019-06-10T23:47:05.247Z,25.77
2019-06-10T23:49:34.878Z,25.27
2019-06-10T23:52:05.478Z,24.70
2019-06-10T23:54:35.293Z,24.47
2019-06-10T23:57:05.953Z,24.80
2019-06-10T23:59:36.275Z,26.00
